PILOTS ONLINE: 422    ATC ONLINE: 49

KMEI - Key Field

Location

IATA MEI
City Meridian
Country  United States
Latitude 32° 19' 57" N
Longitude 88° 45' 6" W
Elevation 297 ft
Type Medium Airport

Runways

01/19 10003 ft / 150 ft
04/22 4599 ft / 150 ft

Weather

METAR
2014/07/31 22:58
KMEI 312258Z 04007KT 10SM CLR 28/15 A3002 RMK AO2 SLP162 T02830150
TAF
2014/07/31 18:42
TAF KMEI 311737Z 3118/0118 00000KT P6SM VCSH SCT100 SCT110 
     FM010000 02003KT P6SM OVC100 
     FM010800 00000KT 5SM BR SCT015 OVC080 
     FM011300 35004KT P6SM OVC250

Outbound flights

Inbound flights